Time;durP1;ratioP1;P1;durP2;ratioP2;P2;SDS_P1;SDS_P2;PMS_P1;PMS_P2;Temp;Humidity;BMP_temperature;BMP_pressure;BME280_temperature;BME280_humidity;BME280_pressure;Samples;Min_cycle;Max_cycle;Signal;HPM_P1;HPM_P2
2021/06/05 00:02:17;;;;;;;47.08;28.90;;;;;;;15.70;51.91;101934.53;5003979;28;20060;-70
2021/06/05 00:04:43;;;;;;;47.25;30.45;;;;;;;15.82;51.45;101935.78;4997765;28;20128;-68
2021/06/05 00:07:09;;;;;;;48.28;27.85;;;;;;;15.90;51.48;101927.50;5008095;28;20038;-68
2021/06/05 00:09:35;;;;;;;49.15;28.55;;;;;;;15.74;51.65;101922.94;5009370;28;20502;-68
2021/06/05 00:12:00;;;;;;;44.78;29.48;;;;;;;15.82;51.79;101927.88;5008599;28;20042;-68
2021/06/05 00:14:26;;;;;;;55.45;30.63;;;;;;;15.87;51.62;101922.38;5007318;28;20034;-68
2021/06/05 00:16:52;;;;;;;62.58;32.22;;;;;;;15.85;51.67;101930.34;5008779;28;20037;-68
2021/06/05 00:19:20;;;;;;;49.67;31.70;;;;;;;15.73;51.55;101931.78;5006176;28;20064;-69
2021/06/05 00:21:46;;;;;;;58.50;32.58;;;;;;;15.67;52.02;101925.91;5008961;28;20037;-68
2021/06/05 00:24:13;;;;;;;44.15;29.00;;;;;;;15.62;52.42;101918.22;5008492;28;20038;-68
2021/06/05 00:26:39;;;;;;;49.50;29.70;;;;;;;15.68;52.10;101917.06;5007878;28;20076;-69
2021/06/05 00:29:05;;;;;;;50.75;30.13;;;;;;;15.74;51.89;101908.91;5008817;28;20057;-68
2021/06/05 00:31:31;;;;;;;46.55;29.80;;;;;;;15.68;52.17;101907.38;5008226;28;20525;-68
2021/06/05 00:33:57;;;;;;;46.08;28.55;;;;;;;15.80;51.66;101916.53;5008603;28;20048;-68
2021/06/05 00:36:23;;;;;;;42.92;27.52;;;;;;;15.82;51.62;101912.06;5008204;28;20513;-68
2021/06/05 00:38:48;;;;;;;37.13;24.35;;;;;;;15.80;51.87;101912.09;5002604;28;20116;-68
2021/06/05 00:41:18;;;;;;;47.40;29.45;;;;;;;15.74;51.93;101909.75;5007540;28;20121;-70
2021/06/05 00:43:49;;;;;;;49.35;30.08;;;;;;;15.79;51.49;101909.53;5000432;28;20490;-70
2021/06/05 00:46:17;;;;;;;40.47;27.42;;;;;;;15.67;52.15;101913.59;5009162;28;20455;-68
2021/06/05 00:48:43;;;;;;;46.72;28.80;;;;;;;15.53;52.80;101908.94;5008010;28;20139;-68
2021/06/05 00:51:09;;;;;;;40.45;29.10;;;;;;;15.66;52.67;101900.47;4994587;28;20060;-68
2021/06/05 00:53:40;;;;;;;40.53;28.90;;;;;;;15.64;52.72;101900.56;4999774;28;20478;-66
2021/06/05 00:56:11;;;;;;;37.78;27.00;;;;;;;15.64;52.54;101915.50;5007596;28;20046;-68
2021/06/05 00:58:36;;;;;;;39.80;26.85;;;;;;;15.60;52.43;101914.81;5007993;28;20026;-68
2021/06/05 01:01:15;;;;;;;36.75;26.88;;;;;;;15.63;52.64;101914.66;5007280;28;20609;-68
2021/06/05 01:03:45;;;;;;;46.22;29.08;;;;;;;15.77;52.67;101916.66;5006193;28;20430;-68
2021/06/05 01:06:19;;;;;;;37.40;25.52;;;;;;;15.79;52.37;101918.31;5007651;28;20026;-68
2021/06/05 01:08:47;;;;;;;41.58;28.02;;;;;;;15.59;52.49;101918.34;5009220;28;20076;-68
2021/06/05 01:11:24;;;;;;;;;;;;;;;15.80;51.70;101912.09;5008113;28;20033;-68
2021/06/05 01:14:01;;;;;;;35.00;24.67;;;;;;;15.74;52.09;101917.66;5008517;28;19924;-68
2021/06/05 01:16:28;;;;;;;36.92;26.75;;;;;;;15.71;52.52;101919.59;4999342;28;20041;-68
2021/06/05 01:19:01;;;;;;;40.72;26.65;;;;;;;15.82;52.35;101912.06;5008220;28;20038;-68
2021/06/05 01:21:36;;;;;;;35.80;26.40;;;;;;;15.84;52.03;101912.84;5001099;28;20037;-69
2021/06/05 01:24:28;;;;;;;41.67;25.73;;;;;;;15.81;51.98;101910.31;5008087;28;20060;-69
2021/06/05 01:27:01;;;;;;;35.22;26.80;;;;;;;15.64;52.47;101907.59;5006333;28;20026;-69
2021/06/05 01:29:35;;;;;;;;;;;;;;;15.53;53.14;101905.47;5005986;28;20029;-68
2021/06/05 01:32:05;;;;;;;36.60;26.88;;;;;;;15.43;53.21;101902.38;4984260;28;19924;-67
2021/06/05 01:34:39;;;;;;;35.30;25.08;;;;;;;15.65;52.30;101902.25;5010910;28;20130;-69
2021/06/05 01:37:08;;;;;;;36.00;26.13;;;;;;;15.46;53.04;101904.88;5007697;28;20602;-69
2021/06/05 01:39:40;;;;;;;36.35;27.10;;;;;;;15.61;52.44;101902.47;5005508;28;20038;-68
2021/06/05 01:42:14;;;;;;;35.53;26.73;;;;;;;15.57;52.37;101907.91;4999209;28;20041;-68
2021/06/05 01:44:45;;;;;;;37.45;26.55;;;;;;;15.55;52.64;101909.72;4999423;28;20033;-68
2021/06/05 01:47:11;;;;;;;42.03;28.58;;;;;;;15.50;53.07;101903.78;4999542;28;20038;-68
2021/06/05 01:49:38;;;;;;;40.38;28.50;;;;;;;15.45;52.83;101891.75;5004698;28;20029;-68
2021/06/05 01:52:11;;;;;;;39.20;28.80;;;;;;;15.39;53.21;101890.25;5000970;28;20513;-68
2021/06/05 01:54:48;;;;;;;44.83;27.88;;;;;;;15.45;53.01;101883.88;5008746;28;20592;-68
2021/06/05 01:57:21;;;;;;;41.03;30.20;;;;;;;15.36;52.88;101875.44;5003492;28;20486;-68
2021/06/05 02:00:20;;;;;;;43.85;29.45;;;;;;;15.32;53.73;101875.66;4988907;28;20040;-68
2021/06/05 02:02:55;;;;;;;46.30;30.77;;;;;;;15.31;53.42;101874.78;5006273;28;20445;-68
2021/06/05 02:05:30;;;;;;;42.25;29.13;;;;;;;15.25;53.85;101866.31;5003639;28;20435;-68
2021/06/05 02:08:00;;;;;;;44.05;31.33;;;;;;;15.38;53.38;101867.47;5007086;28;20116;-69
2021/06/05 02:10:30;;;;;;;44.95;31.45;;;;;;;15.37;53.48;101871.91;5006335;28;20140;-68
2021/06/05 02:12:58;;;;;;;42.47;29.85;;;;;;;15.37;53.66;101876.28;5001535;28;20525;-68
2021/06/05 02:15:43;;;;;;;49.78;29.73;;;;;;;15.58;53.29;101885.03;5006966;28;20055;-69
2021/06/05 02:18:18;;;;;;;44.67;29.92;;;;;;;15.67;53.06;101889.03;5005701;28;20040;-69
2021/06/05 02:21:04;;;;;;;44.00;28.85;;;;;;;15.82;52.64;101890.09;5004864;28;20542;-69
2021/06/05 02:23:43;;;;;;;35.30;27.00;;;;;;;15.82;52.11;101888.31;5004849;28;20378;-70
2021/06/05 02:26:12;;;;;;;38.40;25.92;;;;;;;15.75;52.46;101879.84;5005805;28;20117;-69
2021/06/05 02:28:38;;;;;;;38.85;25.63;;;;;;;15.91;52.67;101881.78;5006666;28;20038;-69
2021/06/05 02:31:07;;;;;;;39.20;26.85;;;;;;;15.90;52.44;101882.69;5004008;28;20041;-67
2021/06/05 02:33:35;;;;;;;36.40;26.42;;;;;;;15.92;52.71;101867.66;5006294;28;20487;-67
2021/06/05 02:36:11;;;;;;;34.35;24.95;;;;;;;15.95;52.19;101868.38;5019792;28;20053;-67
2021/06/05 02:38:46;;;;;;;34.63;25.05;;;;;;;16.03;52.15;101870.66;4997983;28;20300;-67
2021/06/05 02:41:17;;;;;;;34.65;25.15;;;;;;;16.05;51.92;101873.25;5005067;28;20029;-67
2021/06/05 02:43:44;;;;;;;32.70;23.80;;;;;;;16.07;51.88;101874.03;5005156;28;20026;-67
2021/06/05 02:46:19;;;;;;;35.50;24.55;;;;;;;16.04;51.88;101879.44;5020411;28;20088;-68
2021/06/05 02:48:45;;;;;;;34.90;25.85;;;;;;;16.09;51.80;101872.19;5005855;28;20038;-68
2021/06/05 02:51:13;;;;;;;36.33;24.90;;;;;;;16.08;52.00;101876.56;5006020;28;20058;-70
2021/06/05 02:53:40;;;;;;;31.00;23.15;;;;;;;16.13;52.35;101879.88;4997507;28;20037;-68
2021/06/05 02:56:06;;;;;;;30.52;21.85;;;;;;;16.08;51.63;101878.34;5006352;28;20186;-68
2021/06/05 02:58:35;;;;;;;32.95;23.50;;;;;;;16.02;51.98;101868.09;5001436;28;21174;-68
2021/06/05 03:01:05;;;;;;;31.48;23.02;;;;;;;16.11;51.74;101878.22;5005036;28;20041;-71
2021/06/05 03:03:32;;;;;;;34.40;23.67;;;;;;;15.98;51.47;101868.22;5003485;28;20033;-71
2021/06/05 03:05:59;;;;;;;30.92;23.20;;;;;;;15.88;51.89;101874.84;5005373;28;20058;-71
2021/06/05 03:08:31;;;;;;;29.27;22.60;;;;;;;15.88;52.11;101877.47;5000177;28;20585;-70
2021/06/05 03:11:00;;;;;;;38.38;23.90;;;;;;;15.87;52.41;101867.03;5003387;28;20087;-71
2021/06/05 03:13:26;;;;;;;37.72;23.65;;;;;;;15.90;52.16;101861.59;5005382;28;20065;-71
2021/06/05 03:15:53;;;;;;;32.53;22.90;;;;;;;15.83;52.48;101863.66;5006580;28;20465;-68
2021/06/05 03:18:26;;;;;;;31.17;20.48;;;;;;;15.96;52.45;101864.78;5017463;28;20030;-70
2021/06/05 03:20:58;;;;;;;26.65;20.45;;;;;;;16.05;52.05;101862.69;5005496;28;20042;-70
2021/06/05 03:23:29;;;;;;;32.08;22.35;;;;;;;16.09;51.98;101864.25;5006146;28;20029;-70
2021/06/05 03:25:57;;;;;;;27.58;21.95;;;;;;;16.13;51.84;101858.75;5000809;28;20038;-70
2021/06/05 03:28:25;;;;;;;30.25;22.15;;;;;;;16.17;51.50;101860.31;5020328;28;20036;-70
2021/06/05 03:30:53;;;;;;;28.42;22.17;;;;;;;16.06;52.15;101853.84;4983787;28;20029;-70
2021/06/05 03:33:20;;;;;;;30.75;22.05;;;;;;;16.15;51.78;101858.66;5005501;28;20124;-70
2021/06/05 03:35:47;;;;;;;24.90;20.17;;;;;;;16.08;51.54;101857.25;5000310;28;20502;-70
2021/06/05 03:38:16;;;;;;;33.15;22.70;;;;;;;16.10;51.33;101856.25;5004354;28;20034;-70
2021/06/05 03:40:44;;;;;;;28.08;21.63;;;;;;;16.13;51.71;101848.22;5003994;28;20037;-70
2021/06/05 03:43:11;;;;;;;31.88;22.13;;;;;;;16.04;51.52;101845.16;5004751;28;20743;-71
2021/06/05 03:45:38;;;;;;;29.02;22.92;;;;;;;16.01;51.60;101843.50;5003251;28;20025;-70
2021/06/05 03:48:05;;;;;;;30.70;22.88;;;;;;;16.00;51.81;101834.75;4989140;28;20030;-70
2021/06/05 03:50:40;;;;;;;31.30;21.50;;;;;;;15.91;51.91;101835.16;4999412;28;20091;-70
2021/06/05 03:53:13;;;;;;;32.03;21.55;;;;;;;15.69;52.70;101819.50;4995257;28;20025;-70
2021/06/05 03:55:39;;;;;;;33.45;23.08;;;;;;;16.04;51.65;101827.56;5004271;28;20692;-70
2021/06/05 03:58:06;;;;;;;26.83;20.23;;;;;;;16.04;51.82;101824.06;5003978;28;20098;-72
2021/06/05 04:00:39;;;;;;;26.27;22.15;;;;;;;15.84;52.01;101825.84;4994843;28;20104;-71
2021/06/05 04:03:06;;;;;;;31.35;23.17;;;;;;;16.17;51.34;101830.44;5005961;28;20026;-71
2021/06/05 04:05:33;;;;;;;30.50;21.27;;;;;;;16.14;51.69;101831.44;5005569;28;20034;-71
2021/06/05 04:08:02;;;;;;;29.52;21.38;;;;;;;16.28;51.11;101822.84;5007228;28;20030;-69
2021/06/05 04:10:29;;;;;;;34.03;23.00;;;;;;;16.32;51.35;101829.69;5005803;28;20136;-71
2021/06/05 04:12:57;;;;;;;29.27;21.45;;;;;;;16.30;50.93;101831.56;5005250;28;20041;-71
2021/06/05 04:15:24;;;;;;;30.08;22.70;;;;;;;16.28;50.98;101833.41;5006370;28;20084;-71
2021/06/05 04:18:05;;;;;;;26.50;20.58;;;;;;;16.31;51.41;101838.56;5001041;28;20021;-72
2021/06/05 04:20:32;;;;;;;;;;;;;;;16.32;51.33;101834.13;5005899;28;20029;-72
2021/06/05 04:22:57;;;;;;;30.90;21.70;;;;;;;16.32;51.33;101834.97;5005255;28;20286;-71
2021/06/05 04:25:23;;;;;;;29.98;22.27;;;;;;;16.32;51.38;101832.34;5006135;28;20652;-71
2021/06/05 04:27:49;;;;;;;31.35;23.00;;;;;;;16.52;51.01;101830.50;5004490;28;20061;-68
2021/06/05 04:30:17;;;;;;;29.75;22.10;;;;;;;16.42;51.16;101825.69;5006009;28;20028;-69
2021/06/05 04:32:44;;;;;;;29.27;23.20;;;;;;;16.74;50.27;101825.84;5002254;28;20391;-71
2021/06/05 04:35:13;;;;;;;29.02;22.25;;;;;;;16.87;50.21;101828.75;5005370;28;20041;-70
2021/06/05 04:37:39;;;;;;;27.80;21.45;;;;;;;16.96;50.01;101830.91;5003804;28;20407;-71
2021/06/05 04:40:05;;;;;;;30.30;22.30;;;;;;;16.90;49.75;101825.09;5002571;28;20236;-69
2021/06/05 04:42:31;;;;;;;29.45;22.40;;;;;;;17.03;49.04;101826.16;5004244;28;20565;-69
2021/06/05 04:44:57;;;;;;;27.15;20.92;;;;;;;17.31;49.18;101836.09;5007123;28;20041;-69
2021/06/05 04:47:22;;;;;;;33.70;22.70;;;;;;;17.46;48.79;101831.78;5004134;28;20037;-69
2021/06/05 04:49:48;;;;;;;30.50;22.67;;;;;;;17.53;48.32;101841.09;5005155;28;20097;-70
2021/06/05 04:52:13;;;;;;;29.58;21.45;;;;;;;17.65;48.56;101845.75;5006776;28;20108;-69
2021/06/05 04:54:39;;;;;;;28.83;22.27;;;;;;;17.63;48.13;101842.31;5006468;28;20045;-72
2021/06/05 04:57:05;;;;;;;26.45;20.95;;;;;;;17.91;47.77;101835.50;5007597;28;20052;-72
2021/06/05 04:59:30;;;;;;;26.48;20.92;;;;;;;18.18;46.74;101833.06;5007047;28;20032;-72
2021/06/05 05:01:56;;;;;;;26.63;21.13;;;;;;;18.76;45.74;101831.50;5024219;28;20042;-72
2021/06/05 05:04:22;;;;;;;26.55;20.35;;;;;;;19.58;43.94;101834.53;5008837;28;20045;-72
2021/06/05 05:06:48;;;;;;;24.80;18.60;;;;;;;20.40;42.02;101833.63;5009702;28;20044;-72
2021/06/05 05:09:15;;;;;;;25.40;19.40;;;;;;;20.10;42.41;101833.81;5008081;28;20042;-72
2021/06/05 05:11:41;;;;;;;29.05;19.25;;;;;;;19.82;42.94;101842.72;5008986;28;20044;-70
2021/06/05 05:14:07;;;;;;;26.05;17.90;;;;;;;19.64;43.90;101842.94;5007454;28;20348;-70
2021/06/05 05:16:32;;;;;;;22.23;18.27;;;;;;;19.56;43.54;101839.91;5006522;28;20044;-70
2021/06/05 05:18:59;;;;;;;24.05;19.33;;;;;;;19.48;43.54;101832.44;5008084;28;20394;-70
2021/06/05 05:21:26;;;;;;;20.52;17.33;;;;;;;19.51;44.10;101831.38;5008479;28;20644;-70
2021/06/05 05:23:52;;;;;;;26.88;18.83;;;;;;;19.49;44.13;101834.13;5009336;28;20034;-72
2021/06/05 05:26:19;;;;;;;26.83;19.10;;;;;;;19.58;43.40;101824.75;5006242;28;20053;-71
2021/06/05 05:28:45;;;;;;;22.02;19.08;;;;;;;19.60;43.44;101829.97;5008076;28;20132;-72
2021/06/05 05:31:14;;;;;;;21.08;16.75;;;;;;;19.79;44.21;101821.69;5005657;28;20153;-72
2021/06/05 05:33:41;;;;;;;26.45;19.50;;;;;;;19.89;42.93;101826.31;5007310;28;20394;-72
2021/06/05 05:36:11;;;;;;;20.77;17.88;;;;;;;20.82;41.40;101818.38;5007000;28;20260;-72
2021/06/05 05:38:37;;;;;;;20.60;16.42;;;;;;;20.78;40.21;101808.94;5008566;28;20180;-73
2021/06/05 05:41:08;;;;;;;20.77;18.45;;;;;;;20.82;41.05;101815.72;5007249;28;20037;-70
2021/06/05 05:43:33;;;;;;;21.98;18.40;;;;;;;20.93;41.06;101812.34;5008420;28;20240;-71
2021/06/05 05:45:59;;;;;;;21.65;18.27;;;;;;;21.07;40.68;101808.75;5007340;28;20177;-71
2021/06/05 05:48:24;;;;;;;17.63;15.45;;;;;;;21.30;40.89;101817.75;5007932;28;20036;-70
2021/06/05 05:50:50;;;;;;;22.88;17.70;;;;;;;21.59;39.82;101810.34;5006928;28;20030;-71
2021/06/05 05:53:17;;;;;;;21.95;17.35;;;;;;;21.36;40.28;101814.66;5007471;28;20030;-72
2021/06/05 05:55:44;;;;;;;21.20;16.63;;;;;;;20.92;41.39;101822.13;5006952;28;20033;-70
2021/06/05 05:58:20;;;;;;;19.27;17.27;;;;;;;20.54;41.88;101822.06;5006363;28;20026;-72
2021/06/05 06:00:47;;;;;;;23.40;18.25;;;;;;;20.21;43.33;101828.66;5002636;28;20201;-72
2021/06/05 06:03:15;;;;;;;24.30;19.48;;;;;;;20.00;44.03;101833.56;5007311;28;20017;-72
2021/06/05 06:05:41;;;;;;;18.70;16.70;;;;;;;19.84;44.22;101835.53;4999927;28;20402;-72
2021/06/05 06:08:08;;;;;;;21.63;17.42;;;;;;;19.66;44.38;101841.03;5008779;28;20038;-74
2021/06/05 06:10:35;;;;;;;51.72;28.73;;;;;;;19.44;45.21;101840.66;5006548;28;20038;-72
2021/06/05 06:13:01;;;;;;;21.92;17.65;;;;;;;19.20;45.94;101850.97;5022844;28;20044;-71
2021/06/05 06:15:28;;;;;;;24.25;17.73;;;;;;;19.04;46.57;101840.47;5007204;28;20041;-70
2021/06/05 06:17:55;;;;;;;20.63;16.95;;;;;;;19.02;46.64;101840.56;5003985;28;20275;-69
2021/06/05 06:20:40;;;;;;;21.20;18.65;;;;;;;18.81;47.33;101847.97;5003111;28;20034;-70
2021/06/05 06:23:06;;;;;;;21.23;18.15;;;;;;;18.87;47.86;101847.63;5006477;28;20118;-70
2021/06/05 06:25:38;;;;;;;21.30;17.95;;;;;;;18.81;47.94;101847.97;5006000;28;20030;-69
2021/06/05 06:28:04;;;;;;;20.98;18.38;;;;;;;18.63;47.98;101841.09;5006503;28;20472;-69
2021/06/05 06:30:32;;;;;;;24.40;18.60;;;;;;;18.44;48.88;101844.84;5006549;28;20033;-70
2021/06/05 06:32:58;;;;;;;24.10;19.10;;;;;;;18.39;49.18;101854.84;5005212;28;20037;-67
2021/06/05 06:35:26;;;;;;;21.73;17.98;;;;;;;18.33;49.50;101857.84;5006424;28;20489;-67
2021/06/05 06:37:52;;;;;;;21.98;18.65;;;;;;;18.25;49.69;101852.13;5021286;28;20510;-68
2021/06/05 06:40:20;;;;;;;20.60;18.40;;;;;;;18.21;49.85;101846.19;5006096;28;20130;-68
2021/06/05 06:42:48;;;;;;;21.98;18.30;;;;;;;17.83;50.68;101865.03;5005874;28;20046;-69
2021/06/05 06:45:14;;;;;;;26.65;19.75;;;;;;;17.80;51.30;101862.53;5009137;28;20046;-72
2021/06/05 06:47:40;;;;;;;26.48;20.10;;;;;;;17.69;51.68;101874.66;5006354;28;20712;-71
2021/06/05 06:50:08;;;;;;;23.85;18.48;;;;;;;17.61;52.24;101869.78;4995147;28;20057;-70
2021/06/05 06:52:36;;;;;;;26.73;19.95;;;;;;;17.64;52.54;101877.53;4999157;28;20018;-70
2021/06/05 06:55:02;;;;;;;32.40;20.77;;;;;;;17.62;52.71;101890.81;5020641;28;20033;-70
2021/06/05 06:57:28;;;;;;;27.55;20.77;;;;;;;17.62;52.91;101906.69;5006586;28;20044;-69
2021/06/05 06:59:53;;;;;;;28.95;21.05;;;;;;;17.56;53.06;101920.25;5006689;28;20132;-69
2021/06/05 07:02:19;;;;;;;25.88;21.77;;;;;;;17.73;53.16;101918.50;5003637;28;20460;-71
2021/06/05 07:04:44;;;;;;;26.70;20.52;;;;;;;17.81;52.95;101914.50;5005523;28;20033;-72
2021/06/05 07:07:10;;;;;;;24.17;20.95;;;;;;;17.72;52.51;101914.16;5003355;28;20032;-70
2021/06/05 07:09:36;;;;;;;25.33;20.38;;;;;;;17.99;52.43;101917.09;5005338;28;20065;-70
2021/06/05 07:12:02;;;;;;;26.23;20.33;;;;;;;18.08;51.98;101923.66;5006275;28;20072;-70
2021/06/05 07:14:28;;;;;;;26.17;21.88;;;;;;;17.91;52.58;101933.34;4996218;28;20112;-68
2021/06/05 07:16:53;;;;;;;25.00;20.10;;;;;;;17.72;52.58;101935.31;5006415;28;20030;-71
2021/06/05 07:19:19;;;;;;;30.27;21.75;;;;;;;17.52;53.03;101936.38;5005158;28;20599;-69
2021/06/05 07:21:45;;;;;;;26.13;19.15;;;;;;;17.52;53.28;101933.72;5006007;28;20041;-71
2021/06/05 07:24:12;;;;;;;25.30;21.52;;;;;;;17.48;53.79;101940.94;5020825;28;20030;-68
2021/06/05 07:26:39;;;;;;;26.00;20.83;;;;;;;17.35;54.19;101942.50;5004844;28;20061;-70
2021/06/05 07:29:07;;;;;;;29.33;22.80;;;;;;;17.23;54.93;101951.91;5006066;28;20109;-70
2021/06/05 07:31:40;;;;;;;31.90;23.40;;;;;;;16.78;56.08;101943.59;5003108;28;20029;-69
2021/06/05 07:34:05;;;;;;;29.70;23.02;;;;;;;17.09;55.42;101942.06;5005201;28;20029;-70
2021/06/05 07:36:41;;;;;;;36.00;23.45;;;;;;;16.61;57.62;101952.28;5008812;28;20038;-70
2021/06/05 07:39:10;;;;;;;36.42;24.25;;;;;;;16.85;57.07;101949.41;4996166;28;20042;-69
2021/06/05 07:41:36;;;;;;;36.10;25.42;;;;;;;16.94;56.71;101954.22;5004103;28;20040;-71
2021/06/05 07:44:03;;;;;;;31.40;25.15;;;;;;;16.93;56.81;101952.50;5002346;28;20053;-69
2021/06/05 07:46:29;;;;;;;35.75;26.80;;;;;;;16.91;57.08;101964.97;5003442;28;20030;-69
2021/06/05 07:48:54;;;;;;;32.30;25.55;;;;;;;17.06;56.56;101962.47;5022671;28;20022;-69
2021/06/05 07:51:21;;;;;;;41.67;29.95;;;;;;;16.45;58.48;101968.94;4996818;28;20029;-68
2021/06/05 07:53:48;;;;;;;52.53;31.55;;;;;;;16.87;57.33;101973.97;5005812;28;20113;-69
2021/06/05 07:56:17;;;;;;;45.33;32.97;;;;;;;16.74;57.29;101972.81;5004662;28;20458;-70
2021/06/05 07:58:43;;;;;;;50.80;36.40;;;;;;;16.55;57.94;101980.75;5003559;28;20030;-69
2021/06/05 08:01:08;;;;;;;58.15;38.72;;;;;;;16.10;58.64;101988.13;5005222;28;20040;-69
2021/06/05 08:03:34;;;;;;;61.55;39.25;;;;;;;16.37;57.84;101991.25;5000559;28;20025;-69
2021/06/05 08:05:59;;;;;;;61.88;38.40;;;;;;;16.24;58.40;101981.34;5004699;28;20038;-69
2021/06/05 08:08:25;;;;;;;67.82;42.05;;;;;;;15.87;59.20;101972.47;5007230;28;20042;-68
2021/06/05 08:10:51;;;;;;;64.65;41.53;;;;;;;15.57;59.86;101973.78;5004728;28;20033;-69
2021/06/05 08:13:16;;;;;;;70.68;42.17;;;;;;;15.95;59.27;101976.47;5002513;28;20540;-69
2021/06/05 08:15:45;;;;;;;74.03;42.70;;;;;;;15.88;59.13;101967.09;5004492;28;20321;-69
2021/06/05 08:18:12;;;;;;;69.68;42.05;;;;;;;16.05;58.75;101965.53;5015642;28;20030;-69
2021/06/05 08:20:46;;;;;;;64.50;41.53;;;;;;;16.23;58.02;101972.59;4997846;28;20029;-69
2021/06/05 08:23:12;;;;;;;74.45;43.97;;;;;;;16.19;58.00;101981.56;5016186;28;20038;-69
2021/06/05 08:25:38;;;;;;;66.13;39.50;;;;;;;16.30;57.91;101975.78;5004284;28;20034;-69
2021/06/05 08:28:05;;;;;;;64.47;40.58;;;;;;;16.30;57.95;101976.63;5007378;28;20030;-70
2021/06/05 08:30:34;;;;;;;63.22;38.35;;;;;;;16.44;57.48;101985.69;5005635;28;20038;-69
2021/06/05 08:33:00;;;;;;;62.42;38.90;;;;;;;16.39;57.46;101986.75;5008409;28;20116;-69
2021/06/05 08:35:26;;;;;;;61.83;38.22;;;;;;;16.32;57.34;101987.97;5008020;28;20124;-68
2021/06/05 08:37:51;;;;;;;60.90;38.38;;;;;;;16.27;57.74;101990.00;5007977;28;20045;-69
2021/06/05 08:40:27;;;;;;;55.53;35.63;;;;;;;16.40;57.53;101988.50;5007726;28;21256;-68
2021/06/05 08:42:55;;;;;;;52.90;31.73;;;;;;;16.50;57.59;101985.41;5005948;28;20040;-68
2021/06/05 08:45:28;;;;;;;54.30;35.38;;;;;;;16.49;56.98;101984.56;4996006;28;20037;-68
2021/06/05 08:47:54;;;;;;;51.55;31.02;;;;;;;16.57;57.19;101981.53;4995381;28;20033;-69
2021/06/05 08:50:25;;;;;;;49.10;30.85;;;;;;;16.62;56.72;101968.97;5004101;28;20034;-68
2021/06/05 08:53:20;;;;;;;48.72;33.17;;;;;;;16.66;56.99;101970.53;5004925;28;20110;-68
2021/06/05 08:55:54;;;;;;;47.13;30.90;;;;;;;16.66;56.99;101957.34;5004498;28;20040;-68
2021/06/05 08:58:28;;;;;;;51.95;32.35;;;;;;;16.54;57.15;101958.78;5006051;28;20088;-69
2021/06/05 09:00:56;;;;;;;;;;;;;;;16.54;56.69;101942.13;5001061;28;20036;-69
2021/06/05 09:03:23;;;;;;;49.25;30.67;;;;;;;16.72;56.49;101948.28;5002443;28;19921;-69
2021/06/05 09:06:09;;;;;;;57.85;35.55;;;;;;;16.73;56.72;101945.56;5006636;28;20065;-69
2021/06/05 09:08:35;;;;;;;50.65;31.60;;;;;;;16.71;56.60;101939.50;5019377;28;20494;-69
2021/06/05 09:11:04;;;;;;;52.88;33.85;;;;;;;16.72;56.59;101933.28;5004959;28;20116;-68
2021/06/05 09:13:29;;;;;;;48.50;31.88;;;;;;;16.71;56.55;101933.34;5005096;28;20288;-68
2021/06/05 09:16:34;;;;;;;54.50;34.20;;;;;;;16.70;56.63;101939.56;5005470;28;20099;-68
2021/06/05 09:19:02;;;;;;;59.70;35.67;;;;;;;16.56;57.28;101927.06;4957240;28;20043;-68
2021/06/05 09:21:33;;;;;;;58.35;35.28;;;;;;;16.79;56.88;101931.22;4997578;28;20147;-68
2021/06/05 09:24:20;;;;;;;50.85;34.42;;;;;;;16.87;56.87;101930.84;4993449;28;20112;-68
2021/06/05 09:27:13;;;;;;;60.63;37.28;;;;;;;16.93;56.74;101931.38;5003557;28;20466;-68
2021/06/05 09:29:47;;;;;;;54.28;37.65;;;;;;;16.71;57.38;101926.31;5005271;28;20036;-68
2021/06/05 09:32:15;;;;;;;60.47;38.13;;;;;;;16.69;57.39;101933.44;5003738;28;20129;-69
2021/06/05 09:34:43;;;;;;;52.92;35.50;;;;;;;16.89;56.97;101919.28;5004789;28;20120;-68
2021/06/05 09:37:25;;;;;;;53.42;33.53;;;;;;;16.87;56.74;101921.16;5004007;28;20330;-69
2021/06/05 09:40:21;;;;;;;50.30;33.83;;;;;;;16.95;56.65;101921.59;5004465;28;20022;-68
2021/06/05 09:42:51;;;;;;;50.85;34.10;;;;;;;17.07;56.48;101925.44;5004039;28;20061;-69
2021/06/05 09:45:32;;;;;;;56.88;36.03;;;;;;;16.95;56.88;101928.69;5002379;28;20068;-68
2021/06/05 09:48:31;;;;;;;60.30;36.70;;;;;;;17.22;56.67;101922.00;5004442;28;20280;-68
2021/06/05 09:51:00;;;;;;;53.53;34.35;;;;;;;17.27;55.74;101920.88;5003796;28;20080;-68
2021/06/05 09:53:36;;;;;;;55.22;31.85;;;;;;;17.39;55.71;101920.25;5004325;28;20117;-67
2021/06/05 09:56:21;;;;;;;45.97;30.02;;;;;;;17.49;55.73;101918.84;5003203;28;20208;-68
2021/06/05 09:58:58;;;;;;;42.45;30.00;;;;;;;17.64;55.12;101920.69;4993473;28;20034;-68
2021/06/05 10:01:26;;;;;;;49.80;31.60;;;;;;;17.85;54.71;101917.84;5019608;28;20517;-68
2021/06/05 10:03:57;;;;;;;49.42;32.88;;;;;;;17.88;54.60;101928.25;5002454;28;20034;-68
2021/06/05 10:06:38;;;;;;;49.75;32.63;;;;;;;18.20;53.61;101925.63;5019464;28;20030;-68
2021/06/05 10:09:18;;;;;;;48.65;31.98;;;;;;;18.59;53.81;101932.28;5005199;28;20330;-69
2021/06/05 10:11:45;;;;;;;49.63;33.47;;;;;;;19.01;52.48;101933.38;5003213;28;20108;-68
2021/06/05 10:14:20;;;;;;;41.67;30.73;;;;;;;19.13;51.90;101932.66;4996338;28;20034;-68
2021/06/05 10:16:57;;;;;;;43.80;30.42;;;;;;;19.39;51.12;101938.16;5002958;28;20390;-68
2021/06/05 10:19:34;;;;;;;42.33;30.85;;;;;;;19.87;49.94;101934.31;5003312;28;20036;-68
2021/06/05 10:21:59;;;;;;;43.28;31.48;;;;;;;19.97;49.48;101929.28;5002118;28;20068;-68
2021/06/05 10:24:39;;;;;;;44.60;30.95;;;;;;;19.93;49.58;101938.41;5003333;28;20112;-68
2021/06/05 10:27:12;;;;;;;40.70;29.10;;;;;;;19.67;50.22;101940.88;5002044;28;20042;-68
2021/06/05 10:29:45;;;;;;;42.38;28.13;;;;;;;19.22;50.56;101934.75;5002627;28;20061;-68
2021/06/05 10:32:15;;;;;;;38.90;29.40;;;;;;;19.33;50.40;101935.91;5016807;28;20068;-68
2021/06/05 10:34:44;;;;;;;40.30;29.52;;;;;;;18.97;51.63;101930.06;5003018;28;20179;-68
2021/06/05 10:37:14;;;;;;;37.42;28.67;;;;;;;19.10;51.86;101940.78;5003186;28;20037;-68
2021/06/05 10:39:44;;;;;;;42.58;30.15;;;;;;;19.10;52.16;101943.44;5003064;28;20057;-68
2021/06/05 10:42:39;;;;;;;37.60;29.00;;;;;;;19.17;51.96;101933.34;5002287;28;20557;-69
2021/06/05 10:45:10;;;;;;;45.67;33.65;;;;;;;19.16;51.87;101932.47;5018247;28;20128;-68
2021/06/05 10:47:50;;;;;;;44.60;29.40;;;;;;;19.33;51.58;101938.56;5002484;28;20098;-68
2021/06/05 10:50:21;;;;;;;40.47;29.63;;;;;;;19.49;51.38;101932.22;5001640;28;20038;-68
2021/06/05 10:53:05;;;;;;;;;;;;;;;19.37;51.18;101937.41;5003140;28;20098;-68
2021/06/05 10:55:38;;;;;;;39.63;27.85;;;;;;;19.66;50.15;101933.03;4999003;28;20077;-68
2021/06/05 10:58:12;;;;;;;38.42;28.10;;;;;;;19.88;50.63;101938.69;5001967;28;20033;-69
2021/06/05 11:00:41;;;;;;;38.60;29.25;;;;;;;19.89;49.81;101935.06;5002133;28;20399;-70
2021/06/05 11:03:09;;;;;;;34.88;26.10;;;;;;;19.86;49.52;101926.44;5002792;28;20044;-68
2021/06/05 11:05:36;;;;;;;38.20;27.45;;;;;;;19.89;49.63;101929.75;4999078;28;20033;-67
2021/06/05 11:08:16;;;;;;;36.33;26.70;;;;;;;20.00;49.69;101920.28;5001866;28;20127;-68
2021/06/05 11:11:08;;;;;;;36.75;28.90;;;;;;;20.08;49.47;101921.50;5002068;28;20037;-68
2021/06/05 11:13:37;;;;;;;36.08;26.35;;;;;;;20.38;49.73;101922.28;4986345;28;20099;-67
2021/06/05 11:16:04;;;;;;;39.17;28.27;;;;;;;20.63;48.34;101916.22;5001485;28;20092;-67
2021/06/05 11:18:36;;;;;;;35.08;26.45;;;;;;;20.79;48.52;101916.03;5002013;28;20045;-67
2021/06/05 11:21:22;;;;;;;39.17;29.10;;;;;;;20.85;50.37;101916.50;5001798;28;20414;-67
2021/06/05 11:23:57;;;;;;;36.70;28.27;;;;;;;22.16;47.29;101924.22;4992155;28;20299;-67
2021/06/05 11:26:39;;;;;;;35.10;25.75;;;;;;;22.39;44.57;101932.31;5002125;28;20034;-69